createdAt,value
2023-01-12T00:00:43.587Z,95.36
2023-01-12T00:01:43.545Z,95.36
2023-01-12T00:02:43.569Z,95.36
2023-01-12T00:03:43.518Z,95.36
2023-01-12T00:04:43.527Z,95.36
2023-01-12T00:05:43.490Z,95.36
2023-01-12T00:06:43.492Z,95.25
2023-01-12T00:07:43.495Z,95.05
2023-01-12T00:08:43.462Z,94.95
2023-01-12T00:09:43.571Z,94.95
2023-01-12T00:10:43.443Z,94.95
2023-01-12T00:11:43.521Z,95.05
2023-01-12T00:12:43.434Z,95.05
2023-01-12T00:13:43.404Z,95.05
2023-01-12T00:14:43.397Z,95.05
2023-01-12T00:15:43.422Z,94.95
2023-01-12T00:16:43.447Z,94.95
2023-01-12T00:17:43.360Z,94.84
2023-01-12T00:18:43.345Z,94.74
2023-01-12T00:19:43.373Z,94.64
2023-01-12T00:20:43.330Z,94.54
2023-01-12T00:21:43.313Z,94.54
2023-01-12T00:22:43.330Z,94.43
2023-01-12T00:23:43.380Z,94.33
2023-01-12T00:24:43.296Z,94.33
2023-01-12T00:25:43.281Z,94.23
2023-01-12T00:26:43.279Z,94.12
2023-01-12T00:27:43.299Z,94.12
2023-01-12T00:28:43.261Z,94.02
2023-01-12T00:29:43.283Z,94.12
2023-01-12T00:30:43.242Z,94.12
2023-01-12T00:31:43.394Z,94.12
2023-01-12T00:32:43.219Z,94.12
2023-01-12T00:33:43.189Z,94.12
2023-01-12T00:34:43.218Z,94.23
2023-01-12T00:35:43.158Z,94.23
2023-01-12T00:36:43.161Z,94.33
2023-01-12T00:37:43.146Z,94.54
2023-01-12T00:38:43.130Z,94.64
2023-01-12T00:39:56.661Z,94.84
2023-01-12T00:40:44.110Z,95.05
2023-01-12T00:41:43.103Z,95.25
2023-01-12T00:42:43.081Z,95.46
2023-01-12T00:43:43.139Z,95.56
2023-01-12T00:44:43.096Z,95.67
2023-01-12T00:45:43.059Z,95.87
2023-01-12T00:46:43.064Z,95.87
2023-01-12T00:47:43.044Z,95.97
2023-01-12T00:48:43.095Z,95.97
2023-01-12T00:49:43.008Z,95.87
2023-01-12T00:50:42.999Z,95.87
2023-01-12T00:51:42.982Z,95.77
2023-01-12T00:52:42.984Z,95.77
2023-01-12T00:53:42.964Z,95.67
2023-01-12T00:54:43.012Z,95.67
2023-01-12T00:55:42.945Z,95.77
2023-01-12T00:56:42.970Z,95.67
2023-01-12T00:57:42.915Z,95.67
2023-01-12T00:58:42.937Z,95.56
2023-01-12T00:59:42.903Z,95.67
2023-01-12T01:00:42.902Z,95.77
2023-01-12T01:01:43.008Z,95.77
2023-01-12T01:02:42.918Z,95.77
2023-01-12T01:03:42.858Z,95.77
2023-01-12T01:04:42.847Z,95.77
2023-01-12T01:05:42.866Z,95.87
2023-01-12T01:06:42.855Z,95.87
2023-01-12T01:07:42.854Z,95.87
2023-01-12T01:08:42.816Z,95.77
2023-01-12T01:09:42.797Z,95.77
2023-01-12T01:10:42.798Z,95.77
2023-01-12T01:11:42.760Z,95.87
2023-01-12T01:12:42.755Z,95.77
2023-01-12T01:13:42.785Z,95.77
2023-01-12T01:14:42.754Z,95.77
2023-01-12T01:15:42.777Z,95.67
2023-01-12T01:16:42.761Z,95.67
2023-01-12T01:17:42.790Z,95.62
2023-01-12T01:18:42.745Z,95.62
2023-01-12T01:19:42.706Z,95.52
2023-01-12T01:20:42.684Z,95.31
2023-01-12T01:21:42.656Z,95.10
2023-01-12T01:22:42.705Z,95.10
2023-01-12T01:23:42.684Z,94.90
2023-01-12T01:24:42.655Z,94.59
2023-01-12T01:25:42.623Z,94.45
2023-01-12T01:26:42.665Z,94.34
2023-01-12T01:27:42.674Z,94.34
2023-01-12T01:28:42.588Z,94.34
2023-01-12T01:29:42.651Z,94.24
2023-01-12T01:30:42.604Z,94.34
2023-01-12T01:31:42.578Z,94.34
2023-01-12T01:32:42.607Z,94.34
2023-01-12T01:33:42.582Z,94.24
2023-01-12T01:34:42.614Z,94.24
2023-01-12T01:35:42.565Z,94.24
2023-01-12T01:36:42.508Z,94.24
2023-01-12T01:37:42.488Z,94.24
2023-01-12T01:38:42.484Z,94.34
2023-01-12T01:39:42.475Z,94.34
2023-01-12T01:40:42.510Z,94.34
2023-01-12T01:41:43.735Z,94.34
2023-01-12T01:42:42.454Z,94.34
2023-01-12T01:43:42.493Z,94.45
2023-01-12T01:44:42.421Z,94.45
2023-01-12T01:45:42.452Z,94.45
2023-01-12T01:46:42.488Z,94.45
2023-01-12T01:47:42.383Z,94.55
2023-01-12T01:48:42.372Z,94.65
2023-01-12T01:49:42.372Z,94.76
2023-01-12T01:50:42.378Z,94.76
2023-01-12T01:51:42.368Z,94.85
2023-01-12T01:52:42.335Z,94.96
2023-01-12T01:53:42.344Z,94.96
2023-01-12T01:54:42.311Z,95.06
2023-01-12T01:55:42.305Z,95.06
2023-01-12T01:56:42.298Z,95.06
2023-01-12T01:57:42.316Z,95.17
2023-01-12T01:58:42.263Z,95.27
2023-01-12T01:59:42.255Z,95.37
2023-01-12T02:00:42.251Z,95.37
2023-01-12T02:01:42.332Z,95.37
2023-01-12T02:02:42.393Z,95.47
2023-01-12T02:03:42.232Z,95.47
2023-01-12T02:04:42.205Z,95.37
2023-01-12T02:05:42.183Z,95.37
2023-01-12T02:06:42.200Z,95.37
2023-01-12T02:07:42.160Z,95.27
2023-01-12T02:08:42.154Z,95.17
2023-01-12T02:09:42.190Z,95.17
2023-01-12T02:10:42.135Z,95.17
2023-01-12T02:11:42.120Z,95.06
2023-01-12T02:12:42.115Z,94.96
2023-01-12T02:13:42.113Z,94.96
2023-01-12T02:14:42.140Z,94.96
2023-01-12T02:15:42.122Z,94.96
2023-01-12T02:16:42.065Z,94.96
2023-01-12T02:17:42.110Z,94.85
2023-01-12T02:18:42.042Z,94.85
2023-01-12T02:19:42.030Z,94.85
2023-01-12T02:20:42.030Z,94.96
2023-01-12T02:21:42.071Z,95.06
2023-01-12T02:22:42.010Z,95.17
2023-01-12T02:23:42.002Z,95.27
2023-01-12T02:24:41.992Z,95.27
2023-01-12T02:25:41.980Z,95.37
2023-01-12T02:26:41.960Z,95.37
2023-01-12T02:27:41.992Z,95.47
2023-01-12T02:28:41.943Z,95.57
2023-01-12T02:29:41.948Z,95.57
2023-01-12T02:30:41.933Z,95.57
2023-01-12T02:31:42.064Z,95.57
2023-01-12T02:32:41.963Z,95.47
2023-01-12T02:33:41.960Z,95.47
2023-01-12T02:34:41.970Z,95.47
2023-01-12T02:35:41.956Z,95.57
2023-01-12T02:36:41.927Z,95.57
2023-01-12T02:37:41.901Z,95.68
2023-01-12T02:38:41.882Z,95.78
2023-01-12T02:39:41.893Z,95.78
2023-01-12T02:40:41.889Z,95.78
2023-01-12T02:41:41.899Z,95.89
2023-01-12T02:42:41.820Z,95.89
2023-01-12T02:43:41.852Z,95.89
2023-01-12T02:44:41.768Z,95.89
2023-01-12T02:45:41.797Z,95.89
2023-01-12T02:46:41.800Z,95.89
2023-01-12T02:47:41.750Z,95.89
2023-01-12T02:48:41.772Z,95.89
2023-01-12T02:49:41.728Z,95.98
2023-01-12T02:50:41.707Z,96.09
2023-01-12T02:51:41.702Z,96.09
2023-01-12T02:52:41.707Z,96.09
2023-01-12T02:53:41.700Z,96.09
2023-01-12T02:54:41.666Z,96.09
2023-01-12T02:55:41.649Z,96.19
2023-01-12T02:56:41.699Z,96.30
2023-01-12T02:57:41.687Z,96.40
2023-01-12T02:58:41.628Z,96.40
2023-01-12T02:59:41.723Z,96.50
2023-01-12T03:00:41.664Z,96.55
2023-01-12T03:01:41.659Z,96.50
2023-01-12T03:02:41.638Z,96.55
2023-01-12T03:03:41.586Z,96.65
2023-01-12T03:04:41.602Z,96.60
2023-01-12T03:05:41.629Z,96.65
2023-01-12T03:06:41.528Z,96.65
2023-01-12T03:07:41.557Z,96.75
2023-01-12T03:08:41.508Z,96.75
2023-01-12T03:09:41.491Z,96.75
2023-01-12T03:10:41.524Z,96.75
2023-01-12T03:11:41.510Z,96.65
2023-01-12T03:12:41.476Z,96.65
2023-01-12T03:13:41.545Z,96.65
2023-01-12T03:14:41.470Z,96.65
2023-01-12T03:15:41.733Z,96.75
2023-01-12T03:16:41.454Z,96.75
2023-01-12T03:17:41.417Z,96.75
2023-01-12T03:18:41.498Z,96.75
2023-01-12T03:19:41.381Z,96.75
2023-01-12T03:20:41.410Z,96.85
2023-01-12T03:21:41.355Z,96.85
2023-01-12T03:22:41.369Z,96.85
2023-01-12T03:23:41.370Z,96.85
2023-01-12T03:24:41.366Z,96.85
2023-01-12T03:25:41.325Z,96.75
2023-01-12T03:26:41.341Z,96.85
2023-01-12T03:27:41.323Z,96.75
2023-01-12T03:28:41.284Z,96.75
2023-01-12T03:29:41.342Z,96.75
2023-01-12T03:30:41.287Z,96.85
2023-01-12T03:31:41.377Z,96.85
2023-01-12T03:32:41.264Z,96.85
2023-01-12T03:33:41.276Z,96.95
2023-01-12T03:34:41.266Z,96.95
2023-01-12T03:35:41.228Z,96.95
2023-01-12T03:36:41.215Z,97.06
2023-01-12T03:37:41.214Z,97.06
2023-01-12T03:38:41.207Z,97.06
2023-01-12T03:39:41.216Z,96.95
2023-01-12T03:40:41.205Z,96.95
2023-01-12T03:41:41.187Z,96.95
2023-01-12T03:42:41.153Z,97.06
2023-01-12T03:43:41.204Z,97.06
2023-01-12T03:44:41.160Z,97.06
2023-01-12T03:45:41.132Z,97.16
2023-01-12T03:46:41.187Z,97.16
2023-01-12T03:47:41.202Z,97.16
2023-01-12T03:48:41.125Z,97.16
2023-01-12T03:49:41.063Z,96.95
2023-01-12T03:50:41.078Z,96.65
2023-01-12T03:51:41.082Z,96.50
2023-01-12T03:52:41.045Z,96.30
2023-01-12T03:53:41.033Z,96.30
2023-01-12T03:54:41.055Z,96.30
2023-01-12T03:55:41.034Z,96.40
2023-01-12T03:56:41.004Z,96.40
2023-01-12T03:57:41.095Z,96.50
2023-01-12T03:58:40.964Z,96.50
2023-01-12T03:59:41.052Z,96.60
2023-01-12T04:00:41.037Z,96.60
2023-01-12T04:01:41.055Z,96.70
2023-01-12T04:02:40.935Z,96.70
2023-01-12T04:03:40.975Z,96.70
2023-01-12T04:04:40.903Z,96.70
2023-01-12T04:05:40.929Z,96.60
2023-01-12T04:06:40.952Z,96.60
2023-01-12T04:07:40.873Z,96.60
2023-01-12T04:08:40.875Z,96.60
2023-01-12T04:09:49.551Z,96.50
2023-01-12T04:10:40.854Z,96.50
2023-01-12T04:11:40.811Z,96.40
2023-01-12T04:12:40.812Z,96.30
2023-01-12T04:13:40.857Z,96.19
2023-01-12T04:14:40.787Z,96.19
2023-01-12T04:15:40.811Z,96.19
2023-01-12T04:16:40.850Z,96.19
2023-01-12T04:17:40.755Z,96.30
2023-01-12T04:18:40.759Z,96.19
2023-01-12T04:19:40.779Z,96.09
2023-01-12T04:20:40.746Z,95.98
2023-01-12T04:21:40.789Z,95.98
2023-01-12T04:22:40.696Z,95.98
2023-01-12T04:23:40.691Z,95.98
2023-01-12T04:24:40.680Z,95.98
2023-01-12T04:25:40.712Z,96.09
2023-01-12T04:26:40.689Z,96.09
2023-01-12T04:27:40.707Z,96.09
2023-01-12T04:28:40.646Z,95.98
2023-01-12T04:29:40.647Z,95.89
2023-01-12T04:30:40.631Z,95.78
2023-01-12T04:31:40.699Z,95.68
2023-01-12T04:32:40.688Z,95.78
2023-01-12T04:33:40.638Z,95.78
2023-01-12T04:34:40.594Z,95.78
2023-01-12T04:35:40.627Z,95.78
2023-01-12T04:36:41.911Z,95.89
2023-01-12T04:37:40.658Z,95.89
2023-01-12T04:38:40.546Z,95.98
2023-01-12T04:39:40.582Z,95.98
2023-01-12T04:40:40.527Z,95.98
2023-01-12T04:41:40.486Z,96.09
2023-01-12T04:42:40.510Z,95.98
2023-01-12T04:43:40.488Z,95.98
2023-01-12T04:44:40.498Z,95.98
2023-01-12T04:45:40.571Z,96.09
2023-01-12T04:46:40.518Z,96.09
2023-01-12T04:47:40.478Z,96.09
2023-01-12T04:48:40.440Z,96.19
2023-01-12T04:49:40.432Z,96.30
2023-01-12T04:50:40.397Z,96.40
2023-01-12T04:51:40.537Z,96.50
2023-01-12T04:52:40.391Z,96.50
2023-01-12T04:53:40.470Z,96.60
2023-01-12T04:54:40.388Z,96.60
2023-01-12T04:55:40.362Z,96.60
2023-01-12T04:56:40.378Z,96.60
2023-01-12T04:57:40.364Z,96.70
2023-01-12T04:58:40.358Z,96.70
2023-01-12T04:59:40.387Z,96.70
2023-01-12T05:00:40.318Z,96.81
2023-01-12T05:01:40.501Z,96.81
2023-01-12T05:02:40.291Z,96.91
2023-01-12T05:03:40.318Z,97.02
2023-01-12T05:04:40.271Z,97.12
2023-01-12T05:05:40.274Z,97.22
2023-01-12T05:06:40.217Z,97.22
2023-01-12T05:07:40.250Z,97.32
2023-01-12T05:08:40.268Z,97.42
2023-01-12T05:09:40.223Z,97.53
2023-01-12T05:10:40.222Z,97.63
2023-01-12T05:11:40.198Z,97.73
2023-01-12T05:12:40.178Z,97.73
2023-01-12T05:13:40.176Z,97.73
2023-01-12T05:14:40.219Z,97.73
2023-01-12T05:15:40.190Z,97.73
2023-01-12T05:16:40.191Z,97.73
2023-01-12T05:17:40.124Z,97.73
2023-01-12T05:18:40.181Z,97.83
2023-01-12T05:19:40.217Z,97.83
2023-01-12T05:20:40.139Z,97.83
2023-01-12T05:21:40.080Z,97.73
2023-01-12T05:22:40.086Z,97.73
2023-01-12T05:23:40.068Z,97.73
2023-01-12T05:24:40.047Z,97.83
2023-01-12T05:25:40.062Z,97.83
2023-01-12T05:26:40.057Z,97.73
2023-01-12T05:27:40.006Z,97.63
2023-01-12T05:28:40.007Z,97.63
2023-01-12T05:29:39.992Z,97.63
2023-01-12T05:30:40.021Z,97.63
2023-01-12T05:31:40.021Z,97.63
2023-01-12T05:32:40.071Z,97.63
2023-01-12T05:33:39.946Z,97.53
2023-01-12T05:34:39.923Z,97.53
2023-01-12T05:35:39.936Z,97.53
2023-01-12T05:36:39.914Z,97.42
2023-01-12T05:37:39.915Z,97.53
2023-01-12T05:38:39.912Z,97.42
2023-01-12T05:39:39.882Z,97.32
2023-01-12T05:40:39.866Z,97.32
2023-01-12T05:41:39.894Z,97.32
2023-01-12T05:42:39.927Z,97.32
2023-01-12T05:43:39.831Z,97.32
2023-01-12T05:44:39.835Z,97.42
2023-01-12T05:45:39.811Z,97.32
2023-01-12T05:46:39.856Z,97.22
2023-01-12T05:47:39.793Z,97.12
2023-01-12T05:48:39.834Z,97.02
2023-01-12T05:49:39.762Z,97.02
2023-01-12T05:50:39.760Z,97.12
2023-01-12T05:51:39.796Z,97.12
2023-01-12T05:52:39.774Z,97.12
2023-01-12T05:53:39.745Z,97.02
2023-01-12T05:54:41.671Z,96.91
2023-01-12T05:55:39.720Z,96.91
2023-01-12T05:56:39.708Z,96.85
2023-01-12T05:57:41.680Z,96.81
2023-01-12T05:58:39.721Z,96.81
2023-01-12T05:59:39.699Z,96.81
2023-01-12T06:00:39.641Z,96.91
2023-01-12T06:01:39.645Z,96.95
2023-01-12T06:02:39.611Z,96.85
2023-01-12T06:03:39.640Z,96.85
2023-01-12T06:04:39.774Z,96.85
2023-01-12T06:05:39.643Z,96.70
2023-01-12T06:06:39.622Z,96.85
2023-01-12T06:07:39.577Z,96.81
2023-01-12T06:08:39.552Z,96.95
2023-01-12T06:09:39.573Z,97.06
2023-01-12T06:10:39.531Z,97.06
2023-01-12T06:11:39.526Z,97.16
2023-01-12T06:12:39.579Z,97.16
2023-01-12T06:13:39.524Z,97.27
2023-01-12T06:14:39.500Z,97.16
2023-01-12T06:15:39.556Z,97.16
2023-01-12T06:16:39.500Z,97.16
2023-01-12T06:17:39.534Z,97.27
2023-01-12T06:18:39.452Z,97.27
2023-01-12T06:19:39.494Z,97.27
2023-01-12T06:20:39.430Z,97.37
2023-01-12T06:21:39.447Z,97.27
2023-01-12T06:22:39.399Z,97.27
2023-01-12T06:23:39.629Z,97.16
2023-01-12T06:24:39.389Z,96.95
2023-01-12T06:25:39.387Z,96.75
2023-01-12T06:26:39.427Z,96.81
2023-01-12T06:27:39.351Z,96.85
2023-01-12T06:28:39.371Z,96.91
2023-01-12T06:29:39.391Z,96.91
2023-01-12T06:30:39.311Z,96.91
2023-01-12T06:31:39.330Z,96.81
2023-01-12T06:32:39.442Z,96.91
2023-01-12T06:33:39.341Z,96.81
2023-01-12T06:34:39.290Z,96.81
2023-01-12T06:35:39.274Z,96.70
2023-01-12T06:36:39.245Z,96.70
2023-01-12T06:37:39.288Z,96.81
2023-01-12T06:38:39.283Z,96.81
2023-01-12T06:39:39.243Z,96.70
2023-01-12T06:40:39.218Z,96.70
2023-01-12T06:41:39.257Z,96.60
2023-01-12T06:42:39.221Z,96.60
2023-01-12T06:43:39.202Z,96.60
2023-01-12T06:44:39.172Z,96.60
2023-01-12T06:45:39.171Z,96.60
2023-01-12T06:46:39.291Z,96.50
2023-01-12T06:47:39.180Z,96.50
2023-01-12T06:48:39.584Z,96.50
2023-01-12T06:49:39.121Z,96.40
2023-01-12T06:50:39.107Z,96.50
2023-01-12T06:51:39.089Z,96.40
2023-01-12T06:52:39.380Z,96.30
2023-01-12T06:53:39.089Z,96.40
2023-01-12T06:54:39.061Z,96.50
2023-01-12T06:55:39.050Z,96.60
2023-01-12T06:56:39.059Z,96.81
2023-01-12T06:57:39.061Z,96.81
2023-01-12T06:58:39.056Z,97.02
2023-01-12T06:59:39.140Z,97.02
2023-01-12T07:00:39.012Z,97.02
2023-01-12T07:01:39.036Z,97.02
2023-01-12T07:02:39.001Z,97.12
2023-01-12T07:03:38.969Z,97.22
2023-01-12T07:04:40.716Z,97.22
2023-01-12T07:05:38.982Z,97.32
2023-01-12T07:06:38.949Z,97.42
2023-01-12T07:07:40.391Z,97.53
2023-01-12T07:08:38.912Z,97.53
2023-01-12T07:09:38.941Z,97.53
2023-01-12T07:10:38.949Z,97.63
2023-01-12T07:11:39.464Z,97.53
2023-01-12T07:12:38.861Z,97.53
2023-01-12T07:13:38.889Z,97.42
2023-01-12T07:14:39.030Z,97.32
2023-01-12T07:15:38.921Z,97.32
2023-01-12T07:16:38.819Z,97.32
2023-01-12T07:17:38.827Z,97.42
2023-01-12T07:18:38.847Z,97.42
2023-01-12T07:19:40.798Z,97.32
2023-01-12T07:20:38.786Z,97.32
2023-01-12T07:21:38.807Z,97.42
2023-01-12T07:22:38.792Z,97.42
2023-01-12T07:23:38.757Z,97.42
2023-01-12T07:24:38.929Z,97.53
2023-01-12T07:25:38.737Z,97.53
2023-01-12T07:26:38.713Z,97.53
2023-01-12T07:27:38.731Z,97.63
2023-01-12T07:28:38.699Z,97.63
2023-01-12T07:29:38.748Z,97.73
2023-01-12T07:30:38.668Z,97.73
2023-01-12T07:31:38.661Z,97.63
2023-01-12T07:32:38.660Z,97.73
2023-01-12T07:33:38.685Z,97.73
2023-01-12T07:34:38.628Z,97.83
2023-01-12T07:35:38.700Z,97.94
2023-01-12T07:36:38.611Z,97.94
2023-01-12T07:37:38.611Z,98.04
2023-01-12T07:38:38.578Z,97.94
2023-01-12T07:39:38.664Z,97.69
2023-01-12T07:40:38.625Z,97.69
2023-01-12T07:41:38.587Z,97.58
2023-01-12T07:42:38.542Z,97.58
2023-01-12T07:43:38.567Z,97.69
2023-01-12T07:44:38.518Z,97.79
2023-01-12T07:45:38.507Z,97.89
2023-01-12T07:46:38.522Z,97.89
2023-01-12T07:47:38.545Z,97.99
2023-01-12T07:48:38.521Z,97.99
2023-01-12T07:49:38.487Z,98.10
2023-01-12T07:50:38.475Z,98.20
2023-01-12T07:51:38.478Z,98.20
2023-01-12T07:52:38.467Z,98.30
2023-01-12T07:53:38.452Z,98.30
2023-01-12T07:54:39.776Z,98.41
2023-01-12T07:55:38.436Z,98.41
2023-01-12T07:56:38.426Z,98.41
2023-01-12T07:57:38.385Z,98.41
2023-01-12T07:58:38.391Z,98.41
2023-01-12T07:59:38.408Z,98.41
2023-01-12T08:00:38.400Z,98.51
2023-01-12T08:01:38.456Z,98.51
2023-01-12T08:02:38.330Z,98.51
2023-01-12T08:03:38.358Z,98.51
2023-01-12T08:04:38.304Z,98.51
2023-01-12T08:05:38.343Z,98.41
2023-01-12T08:06:38.331Z,98.41
2023-01-12T08:07:38.296Z,98.30
2023-01-12T08:08:38.300Z,98.30
2023-01-12T08:09:40.018Z,98.25
2023-01-12T08:10:38.253Z,98.16
2023-01-12T08:11:38.255Z,98.25
2023-01-12T08:12:38.237Z,98.25
2023-01-12T08:13:38.220Z,98.36
2023-01-12T08:14:38.215Z,98.36
2023-01-12T08:15:40.912Z,98.36
2023-01-12T08:16:38.183Z,98.36
2023-01-12T08:17:38.164Z,98.67
2023-01-12T08:18:38.146Z,98.36
2023-01-12T08:19:38.146Z,98.62
2023-01-12T08:20:38.124Z,98.32
2023-01-12T08:21:39.842Z,98.21
2023-01-12T08:22:38.133Z,97.91
2023-01-12T08:23:38.439Z,97.74
2023-01-12T08:24:38.147Z,97.64
2023-01-12T08:25:38.081Z,97.60
2023-01-12T08:26:38.077Z,97.49
2023-01-12T08:27:38.099Z,97.49
2023-01-12T08:28:38.050Z,97.49
2023-01-12T08:29:38.034Z,97.60
2023-01-12T08:30:38.043Z,97.70
2023-01-12T08:31:38.043Z,97.80
2023-01-12T08:32:38.009Z,98.05
2023-01-12T08:33:38.006Z,98.16
2023-01-12T08:34:37.994Z,98.25
2023-01-12T08:35:38.007Z,98.36
2023-01-12T08:36:37.994Z,98.57
2023-01-12T08:37:37.984Z,98.57
2023-01-12T08:38:37.942Z,98.67
2023-01-12T08:39:37.942Z,98.67
2023-01-12T08:40:37.922Z,98.77
2023-01-12T08:41:37.933Z,98.72
2023-01-12T08:42:37.893Z,98.87
2023-01-12T08:43:37.875Z,98.83
2023-01-12T08:44:37.885Z,98.72
2023-01-12T08:45:37.862Z,98.62
2023-01-12T08:46:37.877Z,98.52
2023-01-12T08:47:37.889Z,98.42
2023-01-12T08:48:37.915Z,98.42
2023-01-12T08:49:37.822Z,98.32
2023-01-12T08:50:37.817Z,98.42
2023-01-12T08:51:37.823Z,98.42
2023-01-12T08:52:37.791Z,98.42
2023-01-12T08:53:37.908Z,98.42
2023-01-12T08:54:37.812Z,98.42
2023-01-12T08:55:37.740Z,98.42
2023-01-12T08:56:37.743Z,98.52
2023-01-12T08:57:37.734Z,98.52
2023-01-12T08:58:37.823Z,98.42
2023-01-12T08:59:37.764Z,98.42
2023-01-12T09:00:37.746Z,98.37
2023-01-12T09:01:37.839Z,98.37
2023-01-12T09:02:37.768Z,98.16
2023-01-12T09:03:37.691Z,98.07
2023-01-12T09:04:37.661Z,98.07
2023-01-12T09:05:37.833Z,98.07
2023-01-12T09:06:37.661Z,98.07
2023-01-12T09:07:37.700Z,98.07
2023-01-12T09:08:37.611Z,97.96
2023-01-12T09:09:37.604Z,97.75
2023-01-12T09:10:37.602Z,97.75
2023-01-12T09:11:37.687Z,97.65
2023-01-12T09:12:37.610Z,97.45
2023-01-12T09:13:37.596Z,97.45
2023-01-12T09:14:37.561Z,97.45
2023-01-12T09:15:37.547Z,97.45
2023-01-12T09:16:37.611Z,97.55
2023-01-12T09:17:37.542Z,97.55
2023-01-12T09:18:37.518Z,97.55
2023-01-12T09:19:37.486Z,97.45
2023-01-12T09:20:37.480Z,97.34
2023-01-12T09:21:37.502Z,97.14
2023-01-12T09:22:37.519Z,97.14
2023-01-12T09:23:37.492Z,96.99
2023-01-12T09:24:37.462Z,97.04
2023-01-12T09:25:37.459Z,96.69
2023-01-12T09:26:37.435Z,96.38
2023-01-12T09:27:37.421Z,96.17
2023-01-12T09:28:37.453Z,95.97
2023-01-12T09:29:37.420Z,95.97
2023-01-12T09:30:37.458Z,96.07
2023-01-12T09:31:37.499Z,96.17
2023-01-12T09:32:37.436Z,96.28
2023-01-12T09:33:37.353Z,96.38
2023-01-12T09:34:37.337Z,96.38
2023-01-12T09:35:37.398Z,96.38
2023-01-12T09:36:37.319Z,96.38
2023-01-12T09:37:37.300Z,96.38
2023-01-12T09:38:37.299Z,96.48
2023-01-12T09:39:37.305Z,96.48
2023-01-12T09:40:37.269Z,96.58
2023-01-12T09:41:37.303Z,96.48
2023-01-12T09:42:37.310Z,96.17
2023-01-12T09:43:37.244Z,95.92
2023-01-12T09:44:37.229Z,95.82
2023-01-12T09:45:37.259Z,95.72
2023-01-12T09:46:37.201Z,95.72
2023-01-12T09:47:37.215Z,95.72
2023-01-12T09:48:37.207Z,95.62
2023-01-12T09:49:37.171Z,95.51
2023-01-12T09:50:37.207Z,95.51
2023-01-12T09:51:37.147Z,95.41
2023-01-12T09:52:37.141Z,95.41
2023-01-12T09:53:37.159Z,95.51
2023-01-12T09:54:37.155Z,95.51
2023-01-12T09:55:37.120Z,95.62
2023-01-12T09:56:37.093Z,95.62
2023-01-12T09:57:37.077Z,95.41
2023-01-12T09:58:37.086Z,95.10
2023-01-12T09:59:37.102Z,95.00
2023-01-12T10:00:37.073Z,95.00
2023-01-12T10:01:37.055Z,95.21
2023-01-12T10:02:37.198Z,95.10
2023-01-12T10:03:40.083Z,95.10
2023-01-12T10:04:37.006Z,95.10
2023-01-12T10:05:40.301Z,95.21
2023-01-12T10:06:37.011Z,95.31
2023-01-12T10:07:37.020Z,95.31
2023-01-12T10:08:36.980Z,95.21
2023-01-12T10:09:36.972Z,95.21
2023-01-12T10:11:48.033Z,94.45
2023-01-12T10:12:48.094Z,94.24
2023-01-12T10:13:48.004Z,94.24
2023-01-12T10:14:48.010Z,94.24
2023-01-12T10:15:47.994Z,94.34
2023-01-12T10:16:48.066Z,94.34
2023-01-12T10:17:51.664Z,94.24
2023-01-12T10:18:47.942Z,94.24
2023-01-12T10:19:50.616Z,94.24
2023-01-12T10:20:47.923Z,94.24
2023-01-12T10:21:47.915Z,94.24
2023-01-12T10:22:47.945Z,94.14
2023-01-12T10:23:47.915Z,94.24
2023-01-12T10:24:47.911Z,94.34
2023-01-12T10:25:47.920Z,94.45
2023-01-12T10:26:47.870Z,94.45
2023-01-12T10:27:47.854Z,94.34
2023-01-12T10:28:47.863Z,94.34
2023-01-12T10:29:47.826Z,94.24
2023-01-12T10:30:47.836Z,94.14
2023-01-12T10:31:47.878Z,93.99
2023-01-12T10:32:47.818Z,93.99
2023-01-12T10:33:47.868Z,93.69
2023-01-12T10:34:47.780Z,93.59
2023-01-12T10:35:47.805Z,93.48
2023-01-12T10:36:47.778Z,93.38
2023-01-12T10:37:47.741Z,93.38
2023-01-12T10:38:47.737Z,93.48
2023-01-12T10:39:47.771Z,93.59
2023-01-12T10:40:47.712Z,93.79
2023-01-12T10:41:47.713Z,93.89
2023-01-12T10:42:47.693Z,94.10
2023-01-12T10:43:47.708Z,94.51
2023-01-12T10:44:47.672Z,94.81
2023-01-12T10:45:47.719Z,95.17
2023-01-12T10:46:47.651Z,95.47
2023-01-12T10:47:47.632Z,95.78
2023-01-12T10:48:47.673Z,95.88
2023-01-12T10:49:47.630Z,96.08
2023-01-12T10:50:47.633Z,96.19
2023-01-12T10:51:47.634Z,96.19
2023-01-12T10:52:47.692Z,96.08
2023-01-12T10:53:47.571Z,96.19
2023-01-12T10:54:47.552Z,96.19
2023-01-12T10:55:47.551Z,96.19
2023-01-12T10:56:47.556Z,96.19
2023-01-12T10:57:47.525Z,96.29
2023-01-12T10:58:50.178Z,96.29
2023-01-12T10:59:47.503Z,96.29
2023-01-12T11:00:47.511Z,96.19
2023-01-12T11:01:47.776Z,96.08
2023-01-12T11:02:47.527Z,95.98
2023-01-12T11:03:47.462Z,95.88
2023-01-12T11:04:47.476Z,95.73
2023-01-12T11:05:47.467Z,95.63
2023-01-12T11:06:47.453Z,95.53
2023-01-12T11:07:47.423Z,95.43
2023-01-12T11:08:47.422Z,95.32
2023-01-12T11:09:47.406Z,95.43
2023-01-12T11:10:47.412Z,95.43
2023-01-12T11:11:59.707Z,95.53
2023-01-12T11:12:47.362Z,95.43
2023-01-12T11:13:47.356Z,95.43
2023-01-12T11:14:47.373Z,95.53
2023-01-12T11:15:47.332Z,95.53
2023-01-12T11:16:47.416Z,95.63
2023-01-12T11:17:49.600Z,95.84
2023-01-12T11:18:47.319Z,95.94
2023-01-12T11:19:47.380Z,96.14
2023-01-12T11:20:47.284Z,96.25
2023-01-12T11:21:47.283Z,96.34
2023-01-12T11:22:47.292Z,96.45
2023-01-12T11:23:47.257Z,96.45
2023-01-12T11:24:47.233Z,96.55
2023-01-12T11:25:47.248Z,96.55
2023-01-12T11:26:47.263Z,96.66
2023-01-12T11:27:47.209Z,96.66
2023-01-12T11:28:47.250Z,96.66
2023-01-12T11:29:47.225Z,96.66
2023-01-12T11:30:47.216Z,96.75
2023-01-12T11:31:47.262Z,96.86
2023-01-12T11:32:47.206Z,97.06
2023-01-12T11:33:47.214Z,97.11
2023-01-12T11:34:47.144Z,97.11
2023-01-12T11:35:47.123Z,97.11
2023-01-12T11:36:47.136Z,97.21
2023-01-12T11:37:47.099Z,97.06
2023-01-12T11:38:47.101Z,96.96
2023-01-12T11:39:47.119Z,96.96
2023-01-12T11:40:47.084Z,97.06
2023-01-12T11:41:47.322Z,97.16
2023-01-12T11:42:47.058Z,97.16
2023-01-12T11:43:47.055Z,97.27
2023-01-12T11:44:47.021Z,97.27
2023-01-12T11:45:47.036Z,97.16
2023-01-12T11:46:47.017Z,97.27
2023-01-12T11:47:47.058Z,97.37
2023-01-12T11:48:46.980Z,97.47
2023-01-12T11:49:47.009Z,97.47
2023-01-12T11:50:46.982Z,97.62
2023-01-12T11:51:46.956Z,97.72
2023-01-12T11:52:46.979Z,97.92
2023-01-12T11:53:46.976Z,98.03
2023-01-12T11:54:46.934Z,98.13
2023-01-12T11:55:46.918Z,98.24
2023-01-12T11:56:46.952Z,98.24
2023-01-12T11:57:46.889Z,98.33
2023-01-12T11:58:46.879Z,98.33
2023-01-12T11:59:46.878Z,98.33
2023-01-12T12:00:46.915Z,98.24
2023-01-12T12:01:46.881Z,98.13
2023-01-12T12:02:49.308Z,97.92
2023-01-12T12:03:46.955Z,97.82
2023-01-12T12:04:46.811Z,97.82
2023-01-12T12:05:46.850Z,97.82
2023-01-12T12:06:46.791Z,97.82
2023-01-12T12:07:53.950Z,97.82
2023-01-12T12:08:46.772Z,97.82
2023-01-12T12:09:46.790Z,97.92
2023-01-12T12:10:46.757Z,98.03
2023-01-12T12:11:46.812Z,98.13
2023-01-12T12:12:46.826Z,98.13
2023-01-12T12:13:46.789Z,98.13
2023-01-12T12:14:46.704Z,98.24
2023-01-12T12:15:46.744Z,98.33
2023-01-12T12:16:46.680Z,98.44
2023-01-12T12:17:46.759Z,98.44
2023-01-12T12:18:46.663Z,98.44
2023-01-12T12:19:46.708Z,98.44
2023-01-12T12:20:46.695Z,98.44
2023-01-12T12:21:46.628Z,98.44
2023-01-12T12:22:46.621Z,98.44
2023-01-12T12:23:46.608Z,98.44
2023-01-12T12:24:46.618Z,98.44
2023-01-12T12:25:46.587Z,98.54
2023-01-12T12:26:46.614Z,98.74
2023-01-12T12:27:50.245Z,98.74
2023-01-12T12:28:46.559Z,98.65
2023-01-12T12:29:46.577Z,98.65
2023-01-12T12:30:49.781Z,98.54
2023-01-12T12:31:46.550Z,98.44
2023-01-12T12:32:46.513Z,98.33
2023-01-12T12:33:46.519Z,98.24
2023-01-12T12:34:46.518Z,98.03
2023-01-12T12:35:46.511Z,98.03
2023-01-12T12:36:46.507Z,97.92
2023-01-12T12:37:46.482Z,98.03
2023-01-12T12:38:46.452Z,98.13
2023-01-12T12:39:46.445Z,98.33
2023-01-12T12:40:46.457Z,98.44
2023-01-12T12:41:46.418Z,98.54
2023-01-12T12:42:46.515Z,98.74
2023-01-12T12:43:46.398Z,98.85
2023-01-12T12:44:46.388Z,99.05
2023-01-12T12:45:46.424Z,99.26
2023-01-12T12:46:46.366Z,99.36
2023-01-12T12:47:46.358Z,99.56
2023-01-12T12:48:46.337Z,99.77
2023-01-12T12:49:46.523Z,99.87
2023-01-12T12:50:46.331Z,99.98
2023-01-12T12:51:46.354Z,99.99
2023-01-12T12:52:46.308Z,99.99
2023-01-12T12:53:46.274Z,99.99